createdAt,value
2022-09-04T00:00:01.755Z,13.40
2022-09-04T00:03:02.250Z,13.40
2022-09-04T00:05:37.832Z,13.40
2022-09-04T00:08:11.679Z,13.30
2022-09-04T00:11:18.811Z,13.30
2022-09-04T00:13:58.606Z,13.30
2022-09-04T00:16:29.031Z,13.20
2022-09-04T00:19:14.662Z,13.20
2022-09-04T00:21:52.325Z,13.20
2022-09-04T00:24:24.991Z,13.20
2022-09-04T00:27:05.918Z,13.20
2022-09-04T00:29:49.535Z,13.20
2022-09-04T00:32:38.513Z,13.20
2022-09-04T00:35:20.341Z,13.20
2022-09-04T00:38:15.726Z,13.10
2022-09-04T00:41:15.144Z,13.20
2022-09-04T00:43:47.711Z,13.10
2022-09-04T00:46:27.301Z,13.10
2022-09-04T00:49:30.036Z,13.20
2022-09-04T00:52:02.480Z,13.10
2022-09-04T00:54:53.961Z,13.10
2022-09-04T00:57:44.469Z,13.10
2022-09-04T01:00:19.642Z,13.10
2022-09-04T01:03:08.076Z,13.00
2022-09-04T01:05:55.000Z,13.10
2022-09-04T01:08:41.269Z,13.00
2022-09-04T01:11:26.402Z,13.00
2022-09-04T01:14:14.427Z,13.00
2022-09-04T01:16:55.222Z,13.00
2022-09-04T01:19:30.565Z,13.00
2022-09-04T01:22:21.539Z,13.00
2022-09-04T01:25:16.019Z,13.00
2022-09-04T01:28:11.518Z,12.90
2022-09-04T01:30:50.859Z,12.90
2022-09-04T01:33:31.557Z,12.90
2022-09-04T01:36:34.892Z,12.90
2022-09-04T01:39:02.536Z,12.90
2022-09-04T01:41:43.043Z,13.00
2022-09-04T01:44:11.481Z,13.00
2022-09-04T01:46:41.292Z,13.00
2022-09-04T01:49:28.878Z,13.00
2022-09-04T01:52:23.431Z,13.00
2022-09-04T01:54:58.615Z,13.00
2022-09-04T01:57:47.835Z,13.00
2022-09-04T02:00:18.239Z,13.00
2022-09-04T02:02:53.390Z,13.00
2022-09-04T02:06:04.515Z,12.90
2022-09-04T02:08:56.230Z,13.00
2022-09-04T02:11:28.744Z,13.00
2022-09-04T02:14:22.140Z,13.00
2022-09-04T02:16:58.932Z,13.00
2022-09-04T02:19:46.714Z,13.00
2022-09-04T02:22:33.139Z,13.00
2022-09-04T02:25:27.884Z,13.00
2022-09-04T02:28:03.962Z,13.00
2022-09-04T02:30:42.299Z,13.00
2022-09-04T02:33:29.043Z,13.00
2022-09-04T02:36:10.169Z,13.00
2022-09-04T02:38:45.544Z,12.90
2022-09-04T02:41:21.706Z,12.90
2022-09-04T02:44:10.681Z,13.00
2022-09-04T02:47:12.176Z,12.90
2022-09-04T02:49:51.829Z,12.90
2022-09-04T02:52:47.303Z,12.90
2022-09-04T02:55:39.879Z,12.90
2022-09-04T02:58:25.892Z,12.90
2022-09-04T03:01:10.894Z,12.90
2022-09-04T03:03:40.766Z,12.90
2022-09-04T03:06:18.337Z,12.90
2022-09-04T03:09:03.455Z,12.90
2022-09-04T03:11:45.162Z,12.90
2022-09-04T03:14:34.342Z,13.00
2022-09-04T03:17:38.064Z,13.00
2022-09-04T03:20:27.619Z,13.00
2022-09-04T03:23:20.885Z,13.00
2022-09-04T03:26:12.393Z,13.00
2022-09-04T03:28:44.921Z,12.90
2022-09-04T03:31:38.633Z,12.90
2022-09-04T03:34:41.959Z,12.80
2022-09-04T03:37:37.109Z,12.80
2022-09-04T03:40:19.011Z,12.80
2022-09-04T03:43:21.118Z,12.80
2022-09-04T03:46:06.455Z,12.80
2022-09-04T03:48:40.366Z,12.80
2022-09-04T03:51:32.847Z,12.80
2022-09-04T03:54:18.878Z,12.80
2022-09-04T03:57:03.032Z,12.80
2022-09-04T03:59:52.058Z,12.80
2022-09-04T04:02:47.538Z,12.90
2022-09-04T04:05:30.408Z,12.90
2022-09-04T04:08:22.837Z,13.00
2022-09-04T04:11:16.106Z,13.00
2022-09-04T04:14:04.074Z,13.10
2022-09-04T04:16:45.091Z,13.10
2022-09-04T04:20:05.600Z,13.10
2022-09-04T04:23:17.603Z,13.20
2022-09-04T04:26:00.604Z,13.20
2022-09-04T04:29:02.675Z,13.20
2022-09-04T04:32:08.158Z,13.20
2022-09-04T04:34:47.137Z,13.20
2022-09-04T04:37:43.507Z,13.20
2022-09-04T04:40:15.698Z,13.20
2022-09-04T04:43:10.585Z,13.20
2022-09-04T04:45:51.869Z,13.20
2022-09-04T04:48:18.622Z,13.20
2022-09-04T04:50:59.118Z,13.20
2022-09-04T04:54:09.781Z,13.20
2022-09-04T04:57:05.083Z,13.20
2022-09-04T04:59:58.221Z,13.20
2022-09-04T05:02:38.162Z,13.10
2022-09-04T05:05:13.578Z,13.10
2022-09-04T05:08:07.687Z,13.10
2022-09-04T05:10:58.169Z,13.10
2022-09-04T05:13:30.613Z,13.10
2022-09-04T05:16:22.720Z,13.10
2022-09-04T05:18:59.348Z,13.10
2022-09-04T05:21:52.128Z,13.10
2022-09-04T05:24:44.457Z,13.10
2022-09-04T05:27:39.564Z,13.10
2022-09-04T05:30:09.285Z,13.20
2022-09-04T05:33:08.423Z,13.20
2022-09-04T05:35:55.461Z,13.20
2022-09-04T05:38:26.197Z,13.30
2022-09-04T05:41:06.493Z,13.30
2022-09-04T05:44:16.333Z,13.30
2022-09-04T05:47:26.436Z,13.30
2022-09-04T05:50:08.158Z,13.40
2022-09-04T05:52:44.319Z,13.50
2022-09-04T05:55:45.168Z,13.50
2022-09-04T05:58:40.953Z,13.70
2022-09-04T06:01:52.212Z,13.80
2022-09-04T06:04:37.612Z,13.90
2022-09-04T06:07:31.679Z,14.00
2022-09-04T06:10:49.284Z,14.10
2022-09-04T06:13:42.340Z,14.10
2022-09-04T06:16:39.670Z,14.20
2022-09-04T06:19:15.559Z,14.20
2022-09-04T06:21:58.499Z,14.30
2022-09-04T06:24:36.759Z,14.40
2022-09-04T06:27:35.624Z,14.50
2022-09-04T06:30:09.951Z,14.60
2022-09-04T06:32:55.036Z,14.80
2022-09-04T06:35:44.845Z,14.90
2022-09-04T06:38:14.612Z,15.00
2022-09-04T06:40:48.978Z,15.20
2022-09-04T06:43:19.437Z,15.30
2022-09-04T06:45:55.927Z,15.40
2022-09-04T06:48:49.663Z,15.40
2022-09-04T06:51:29.116Z,15.50
2022-09-04T06:54:20.849Z,15.60
2022-09-04T06:57:00.748Z,15.80
2022-09-04T06:59:27.444Z,16.00
2022-09-04T07:02:06.930Z,16.10
2022-09-04T07:04:51.591Z,16.30
2022-09-04T07:07:34.380Z,16.40
2022-09-04T07:10:10.565Z,16.60
2022-09-04T07:12:56.932Z,16.80
2022-09-04T07:15:45.417Z,17.00
2022-09-04T07:18:23.889Z,17.10
2022-09-04T07:20:59.508Z,17.20
2022-09-04T07:23:41.399Z,17.40
2022-09-04T07:26:26.810Z,17.50
2022-09-04T07:29:13.208Z,17.60
2022-09-04T07:31:55.284Z,17.90
2022-09-04T07:34:32.431Z,18.00
2022-09-04T07:37:27.095Z,18.20
2022-09-04T07:40:12.618Z,18.90
2022-09-04T07:43:28.750Z,19.80
2022-09-04T07:46:06.511Z,20.00
2022-09-04T07:48:41.912Z,20.10
2022-09-04T07:51:14.747Z,20.00
2022-09-04T07:53:47.321Z,19.90
2022-09-04T07:56:23.042Z,19.90
2022-09-04T07:59:21.121Z,19.90
2022-09-04T08:02:03.397Z,19.90
2022-09-04T08:04:46.174Z,19.90
2022-09-04T08:07:21.418Z,19.90
2022-09-04T08:10:23.823Z,19.90
2022-09-04T08:13:36.136Z,19.90
2022-09-04T08:16:13.151Z,20.00
2022-09-04T08:18:50.555Z,20.20
2022-09-04T08:21:31.535Z,20.20
2022-09-04T08:24:10.493Z,20.30
2022-09-04T08:26:52.244Z,20.40
2022-09-04T08:29:58.243Z,20.50
2022-09-04T08:32:28.570Z,20.40
2022-09-04T08:35:10.960Z,20.40
2022-09-04T08:37:56.842Z,20.30
2022-09-04T08:41:14.731Z,20.20
2022-09-04T08:44:09.410Z,20.10
2022-09-04T08:46:59.356Z,20.20
2022-09-04T08:49:38.402Z,20.50
2022-09-04T08:52:23.697Z,21.10
2022-09-04T08:55:08.446Z,21.60
2022-09-04T08:58:18.415Z,22.10
2022-09-04T09:01:16.067Z,22.60
2022-09-04T09:04:34.098Z,22.90
2022-09-04T09:07:22.549Z,23.20
2022-09-04T09:10:04.148Z,23.60
2022-09-04T09:13:02.747Z,23.90
2022-09-04T09:15:48.286Z,24.20
2022-09-04T09:18:33.711Z,24.30
2022-09-04T09:21:10.430Z,24.40
2022-09-04T09:23:58.723Z,24.50
2022-09-04T09:26:30.987Z,24.50
2022-09-04T09:29:16.608Z,24.60
2022-09-04T09:32:04.949Z,24.80
2022-09-04T09:35:02.831Z,25.00
2022-09-04T09:37:53.887Z,25.30
2022-09-04T09:40:48.036Z,25.50
2022-09-04T09:43:53.000Z,25.80
2022-09-04T09:46:47.842Z,25.90
2022-09-04T09:49:36.397Z,25.80
2022-09-04T09:52:29.118Z,25.60
2022-09-04T09:55:13.744Z,25.50
2022-09-04T09:57:59.056Z,25.50
2022-09-04T10:00:59.008Z,25.60
2022-09-04T10:03:41.220Z,25.70
2022-09-04T10:06:35.130Z,26.10
2022-09-04T10:09:42.012Z,26.30
2022-09-04T10:12:20.823Z,26.50
2022-09-04T10:15:27.582Z,26.70
2022-09-04T10:18:32.875Z,27.00
2022-09-04T10:21:20.578Z,27.20
2022-09-04T10:23:57.434Z,27.40
2022-09-04T10:26:44.320Z,27.50
2022-09-04T10:29:23.818Z,27.70
2022-09-04T10:32:12.114Z,27.80
2022-09-04T10:35:12.163Z,27.90
2022-09-04T10:38:12.893Z,28.00
2022-09-04T10:41:14.929Z,28.10
2022-09-04T10:44:00.524Z,28.10
2022-09-04T10:46:51.339Z,28.30
2022-09-04T10:49:20.972Z,28.50
2022-09-04T10:52:07.979Z,28.60
2022-09-04T10:54:54.349Z,28.70
2022-09-04T10:57:42.725Z,28.80
2022-09-04T11:00:19.933Z,28.90
2022-09-04T11:02:52.556Z,29.00
2022-09-04T11:05:55.311Z,29.20
2022-09-04T11:08:26.240Z,29.20
2022-09-04T11:11:11.484Z,29.30
2022-09-04T11:14:20.919Z,29.30
2022-09-04T11:17:12.655Z,29.50
2022-09-04T11:20:18.483Z,29.40
2022-09-04T11:23:07.248Z,29.40
2022-09-04T11:25:54.877Z,29.30
2022-09-04T11:28:45.761Z,29.30
2022-09-04T11:31:40.340Z,29.30
2022-09-04T11:34:32.958Z,29.30
2022-09-04T11:37:10.401Z,29.30
2022-09-04T11:39:58.574Z,29.20
2022-09-04T11:42:50.287Z,29.10
2022-09-04T11:45:41.303Z,29.10
2022-09-04T11:48:21.969Z,29.20
2022-09-04T11:50:57.141Z,29.20
2022-09-04T11:53:36.803Z,29.30
2022-09-04T11:56:21.781Z,29.40
2022-09-04T11:58:48.461Z,29.50
2022-09-04T12:01:35.120Z,29.60
2022-09-04T12:04:23.166Z,29.50
2022-09-04T12:07:16.069Z,29.60
2022-09-04T12:10:11.306Z,29.60
2022-09-04T12:13:27.491Z,29.50
2022-09-04T12:16:18.278Z,29.60
2022-09-04T12:18:54.356Z,29.60
2022-09-04T12:21:43.571Z,29.50
2022-09-04T12:24:48.211Z,29.50
2022-09-04T12:27:54.210Z,29.30
2022-09-04T12:30:49.270Z,29.30
2022-09-04T12:33:45.116Z,29.30
2022-09-04T12:36:21.518Z,29.10
2022-09-04T12:39:07.085Z,29.10
2022-09-04T12:41:41.525Z,29.00
2022-09-04T12:44:30.278Z,29.00
2022-09-04T12:47:13.900Z,29.00
2022-09-04T12:50:02.633Z,29.00
2022-09-04T12:52:57.466Z,29.00
2022-09-04T12:55:45.645Z,29.10
2022-09-04T12:58:31.169Z,29.20
2022-09-04T13:01:00.889Z,29.20
2022-09-04T13:03:30.668Z,29.20
2022-09-04T13:06:28.573Z,29.20
2022-09-04T13:08:58.298Z,29.20
2022-09-04T13:11:44.325Z,29.30
2022-09-04T13:14:38.947Z,29.40
2022-09-04T13:17:23.412Z,29.40
2022-09-04T13:20:11.968Z,29.40
2022-09-04T13:22:50.751Z,29.10
2022-09-04T13:25:27.311Z,29.10
2022-09-04T13:28:20.858Z,29.20
2022-09-04T13:31:06.824Z,29.20
2022-09-04T13:34:07.784Z,29.10
2022-09-04T13:36:49.411Z,29.20
2022-09-04T13:39:47.098Z,29.30
2022-09-04T13:42:13.919Z,29.30
2022-09-04T13:44:54.210Z,29.40
2022-09-04T13:47:32.027Z,29.30
2022-09-04T13:50:09.965Z,29.40
2022-09-04T13:53:10.968Z,29.30
2022-09-04T13:55:54.262Z,29.30
2022-09-04T13:58:26.933Z,29.30
2022-09-04T14:00:59.252Z,29.20
2022-09-04T14:03:39.466Z,29.10
2022-09-04T14:06:10.812Z,29.10
2022-09-04T14:08:39.713Z,29.10
2022-09-04T14:11:41.708Z,29.00
2022-09-04T14:14:18.515Z,28.90
2022-09-04T14:16:45.442Z,28.90
2022-09-04T14:19:42.462Z,28.70
2022-09-04T14:22:40.112Z,28.60
2022-09-04T14:25:12.990Z,28.40
2022-09-04T14:27:42.545Z,28.30
2022-09-04T14:30:22.223Z,28.40
2022-09-04T14:33:07.489Z,28.50
2022-09-04T14:35:49.229Z,28.50
2022-09-04T14:38:48.977Z,28.60
2022-09-04T14:41:38.114Z,28.60
2022-09-04T14:44:50.671Z,28.50
2022-09-04T14:47:38.801Z,28.30
2022-09-04T14:50:13.156Z,28.10
2022-09-04T14:52:48.574Z,28.00
2022-09-04T14:55:28.027Z,27.90
2022-09-04T14:58:19.518Z,27.90
2022-09-04T15:01:20.170Z,27.80
2022-09-04T15:03:50.898Z,27.60
2022-09-04T15:07:01.042Z,27.60
2022-09-04T15:09:38.186Z,27.40
2022-09-04T15:12:26.883Z,27.20
2022-09-04T15:15:37.522Z,26.90
2022-09-04T15:18:24.861Z,26.80
2022-09-04T15:21:02.135Z,26.70
2022-09-04T15:23:40.939Z,26.70
2022-09-04T15:26:28.316Z,26.70
2022-09-04T15:29:16.360Z,26.60
2022-09-04T15:31:43.641Z,26.40
2022-09-04T15:34:12.672Z,26.20
2022-09-04T15:36:39.536Z,26.10
2022-09-04T15:39:09.889Z,26.00
2022-09-04T15:41:47.240Z,26.00
2022-09-04T15:44:30.374Z,26.00
2022-09-04T15:47:00.337Z,26.00
2022-09-04T15:49:31.302Z,26.00
2022-09-04T15:52:10.404Z,25.90
2022-09-04T15:54:39.888Z,25.80
2022-09-04T15:57:27.988Z,25.70
2022-09-04T15:59:58.999Z,25.50
2022-09-04T16:02:37.364Z,25.30
2022-09-04T16:05:14.867Z,25.10
2022-09-04T16:07:41.784Z,24.80
2022-09-04T16:10:38.023Z,24.60
2022-09-04T16:13:07.988Z,24.40
2022-09-04T16:15:39.771Z,24.10
2022-09-04T16:18:13.490Z,23.80
2022-09-04T16:20:50.891Z,23.60
2022-09-04T16:23:19.007Z,23.40
2022-09-04T16:25:53.413Z,23.20
2022-09-04T16:28:23.151Z,23.00
2022-09-04T16:30:57.617Z,22.80
2022-09-04T16:33:28.440Z,22.60
2022-09-04T16:36:08.051Z,22.50
2022-09-04T16:38:46.404Z,22.30
2022-09-04T16:41:25.572Z,22.10
2022-09-04T16:44:13.065Z,22.00
2022-09-04T16:46:44.674Z,21.90
2022-09-04T16:49:25.354Z,21.70
2022-09-04T16:51:58.323Z,21.60
2022-09-04T16:54:37.182Z,21.40
2022-09-04T16:57:13.702Z,21.30
2022-09-04T16:59:43.388Z,21.10
2022-09-04T17:02:20.340Z,21.00
2022-09-04T17:04:54.377Z,20.80
2022-09-04T17:07:46.813Z,20.70
2022-09-04T17:10:30.634Z,20.60
2022-09-04T17:13:16.539Z,20.50
2022-09-04T17:15:53.544Z,20.40
2022-09-04T17:18:22.887Z,20.30
2022-09-04T17:24:10.723Z,20.10
2022-09-04T17:28:56.266Z,20.00
2022-09-04T17:29:22.448Z,19.90
2022-09-04T17:29:36.441Z,19.90
2022-09-04T17:33:36.915Z,19.90
2022-09-04T17:40:38.613Z,19.90
2022-09-04T17:40:38.904Z,19.90
2022-09-04T17:41:39.607Z,19.90
2022-09-04T17:43:58.532Z,19.90
2022-09-04T17:46:32.221Z,19.90
2022-09-04T17:48:59.705Z,19.90
2022-09-04T17:51:28.045Z,19.80
2022-09-04T17:53:56.986Z,19.70
2022-09-04T17:56:40.550Z,19.70
2022-09-04T17:59:13.867Z,19.60
2022-09-04T18:01:52.676Z,19.50
2022-09-04T18:04:26.918Z,19.40
2022-09-04T18:06:53.501Z,19.30
2022-09-04T18:09:26.905Z,19.20
2022-09-04T18:12:05.315Z,19.10
2022-09-04T18:14:46.766Z,19.00
2022-09-04T18:17:20.330Z,18.90
2022-09-04T18:19:55.352Z,18.80
2022-09-04T18:22:33.378Z,18.70
2022-09-04T18:25:00.615Z,18.60
2022-09-04T18:27:51.335Z,18.60
2022-09-04T18:37:12.901Z,18.50
2022-09-04T18:37:22.080Z,18.40
2022-09-04T18:37:25.324Z,18.30
2022-09-04T18:39:30.826Z,18.20
2022-09-04T18:48:15.987Z,18.10
2022-09-04T18:50:36.450Z,18.10
2022-09-04T18:50:46.366Z,18.10
2022-09-04T18:51:06.885Z,18.10
2022-09-04T18:53:15.857Z,18.10
2022-09-04T18:55:45.802Z,18.10
2022-09-04T18:58:12.377Z,18.10
2022-09-04T19:00:44.400Z,18.00
2022-09-04T19:03:11.027Z,18.00
2022-09-04T19:05:45.102Z,17.90
2022-09-04T19:08:16.156Z,17.80
2022-09-04T19:10:48.214Z,17.80
2022-09-04T19:13:34.413Z,17.70
2022-09-04T19:16:07.344Z,17.70
2022-09-04T19:18:45.958Z,17.70
2022-09-04T19:21:17.775Z,17.60
2022-09-04T19:23:47.393Z,17.60
2022-09-04T19:26:39.008Z,17.60
2022-09-04T19:29:12.151Z,17.60
2022-09-04T19:31:52.065Z,17.60
2022-09-04T19:34:28.432Z,17.50
2022-09-04T19:37:03.567Z,17.50
2022-09-04T19:45:57.651Z,17.50
2022-09-04T19:46:17.544Z,17.50
2022-09-04T19:46:25.702Z,17.40
2022-09-04T19:48:37.435Z,17.40
2022-09-04T19:53:31.249Z,17.40
2022-09-04T19:54:37.586Z,17.40
2022-09-04T19:57:32.489Z,17.30
2022-09-04T20:00:38.265Z,17.30
2022-09-04T20:03:01.327Z,17.30
2022-09-04T20:05:31.943Z,17.30
2022-09-04T20:08:01.824Z,17.20
2022-09-04T20:10:38.488Z,17.20
2022-09-04T20:13:11.821Z,17.20
2022-09-04T20:15:42.778Z,17.10
2022-09-04T20:18:18.270Z,17.10
2022-09-04T20:20:48.171Z,17.00
2022-09-04T20:23:35.300Z,16.90
2022-09-04T20:26:24.048Z,16.90
2022-09-04T20:28:58.516Z,16.90
2022-09-04T20:31:36.224Z,16.90
2022-09-04T20:34:20.335Z,16.80
2022-09-04T20:36:51.506Z,16.80
2022-09-04T20:39:32.145Z,16.70
2022-09-04T20:42:01.603Z,16.70
2022-09-04T20:44:51.112Z,16.70
2022-09-04T20:52:42.867Z,16.60
2022-09-04T20:52:53.303Z,16.60
2022-09-04T20:53:38.498Z,16.60
2022-09-04T20:57:58.692Z,16.60
2022-09-04T21:03:14.094Z,16.60
2022-09-04T21:03:20.356Z,16.60
2022-09-04T21:05:22.321Z,16.60
2022-09-04T21:07:54.824Z,16.50
2022-09-04T21:10:40.125Z,16.50
2022-09-04T21:13:23.641Z,16.40
2022-09-04T21:15:57.720Z,16.40
2022-09-04T21:18:24.632Z,16.30
2022-09-04T21:21:00.774Z,16.30
2022-09-04T21:23:46.541Z,16.30
2022-09-04T21:26:45.199Z,16.30
2022-09-04T21:29:20.926Z,16.20
2022-09-04T21:31:47.658Z,16.20
2022-09-04T21:34:32.869Z,16.20
2022-09-04T21:37:28.134Z,16.10
2022-09-04T21:40:04.492Z,16.10
2022-09-04T21:42:41.812Z,16.10
2022-09-04T21:45:17.593Z,16.10
2022-09-04T21:48:02.667Z,16.00
2022-09-04T21:50:37.511Z,15.90
2022-09-04T21:53:23.141Z,15.90
2022-09-04T21:58:35.406Z,15.80
2022-09-04T22:02:35.358Z,15.80
2022-09-04T22:02:37.031Z,15.80
2022-09-04T22:04:57.980Z,15.80
2022-09-04T22:10:00.493Z,15.80
2022-09-04T22:13:31.136Z,15.80
2022-09-04T22:13:49.910Z,15.80
2022-09-04T22:16:17.236Z,15.80
2022-09-04T22:19:16.407Z,15.70
2022-09-04T22:21:49.492Z,15.70
2022-09-04T22:24:46.341Z,15.60
2022-09-04T22:27:13.004Z,15.60
2022-09-04T22:30:01.763Z,15.60
2022-09-04T22:32:34.252Z,15.50
2022-09-04T22:35:00.915Z,15.50
2022-09-04T22:37:39.157Z,15.50
2022-09-04T22:40:16.352Z,15.50
2022-09-04T22:42:51.211Z,15.50
2022-09-04T22:45:36.428Z,15.50
2022-09-04T22:48:21.896Z,15.50
2022-09-04T22:51:09.266Z,15.40
2022-09-04T22:53:59.779Z,15.40
2022-09-04T22:56:45.846Z,15.40
2022-09-04T22:59:32.254Z,15.40
2022-09-04T23:02:13.453Z,15.30
2022-09-04T23:04:40.836Z,15.30
2022-09-04T23:13:46.901Z,15.30
2022-09-04T23:13:53.167Z,15.20
2022-09-04T23:13:55.008Z,15.20
2022-09-04T23:16:25.593Z,15.20
2022-09-04T23:22:52.075Z,15.20
2022-09-04T23:26:43.774Z,15.20
2022-09-04T23:26:53.127Z,15.10
2022-09-04T23:28:27.784Z,15.10
2022-09-04T23:31:07.249Z,15.10
2022-09-04T23:33:38.353Z,15.00
2022-09-04T23:36:28.556Z,15.00
2022-09-04T23:39:13.729Z,14.90
2022-09-04T23:42:02.257Z,14.80
2022-09-04T23:44:47.729Z,14.80
2022-09-04T23:47:47.874Z,14.70
2022-09-04T23:50:31.071Z,14.60
2022-09-04T23:53:03.599Z,14.60
2022-09-04T23:55:41.439Z,14.50
2022-09-04T23:58:51.390Z,14.50
